Airfield :
LOGIN :

Register | Disclaimer

   EN    FR    IT 

 










Legend :    VFR   Marginal VFR   IFR   Intensive IFR   Very Intensive IFR
Visi :
Ceiling :
>= 8 km
>= 3000ft
5 to 8 km
1000 to 3000 ft
1500m to 5 km
500 to 1000 ft
800 to 1500m
200 to 500 ft
< 800m
< 200 ft
Symbols :   Thunderstorms  Fog  Heavy snow  Heavy precipitations  Wind > 20 kt
SIGMETs :     Misc.  Thunderstorms  Icing  Turbulence  Mountain Waves  Volcanic Ashes






- Airport Elevation : 306 ft
- IATA code : EMA


EGNX - Nottingham East Midlands

CURRENT METAR :
  • 241150Z 24008KT 9999 SCT008 BKN020 07/06 Q1022

EXPIRED METARs :
  • 241120Z 24007KT 9999 BKN017 07/06 Q1022
  • 241050Z 25007KT 9999 BKN021 07/06 Q1022
  • 241020Z 25008KT 9999 BKN015 07/06 Q1023
  • 240950Z 26008KT 9999 BKN014 BKN019 06/06 Q1023
  • 240920Z 25008KT 9000 FEW009 BKN015 06/06 Q1023

TAF TAF EGNX
Valid from the 24 at 12:00 until the 25 at 12:00 UTC


241102Z 2412/2512 26007KT 9999 FEW015 BKN020
PROB30
TEMPO 2412/2417 7000 BKN014
BECMG 2417/2420 7000
TEMPO 2417/2509 4000 BR BKN010
PROB30
TEMPO 2418/2509 BKN007
TEMPO 2509/2512 BKN014
ATIS : +44 1332 852 852 (ext 3201)



MET'MAP, your aeronautical weather chart ! - Copyright ORBIFLY December 2007 - Disclaimer

ORBIFLY MET'MAP TEAM :

Programming & Development : Alexandra Zaïnal
Concept & original design : Baudouin d'Aumeries
Assistance for programming : Marc-Olivier Méhu
Technical & hardware support : Manuel Goepfert

Contact : metmap@orbifly.com




SOURCES & CREDITS :

   NOAA